Grant City, Iowa
Current Conditions -  °F | °C
As of 1:35 PM on Sunday 23 Nov 2014 (Local Time) from KCIN Reporting Station
Overcast Overcast  
Wind Chill: 38°   Ceiling: 4100
Heat Index: 46°   Visibility: 10mi
Dew Point: 41°   Wind: 23mph
Humidity: 81%   Direction: 320°NW
Pressure: 29.41"   Gusts: 32mph
Location:  42.2974°N, 94.9163°W
Report Text: KCIN 231935Z AUTO 32020G28KT 10SM SCT018 OVC041 08/05 A2941 RMK AO2
Loading
Personal Weather Stations






























Interactive Weather Map New forecast layout! Learn more

10-Day Weather Forecast

Advertisements
Track Severe Weather on mobile